Time;durP1;ratioP1;P1;durP2;ratioP2;P2;SDS_P1;SDS_P2;PMS_P1;PMS_P2;Temp;Humidity;BMP_temperature;BMP_pressure;BME280_temperature;BME280_humidity;BME280_pressure;Samples;Min_cycle;Max_cycle;Signal;HPM_P1;HPM_P2
2024/04/22 00:02:16;;;;;;;2.67;1.60;;;;;;;-1.85;100.00;102873.66;5358290;26;19992;-73
2024/04/22 00:04:42;;;;;;;3.22;1.80;;;;;;;-2.08;100.00;102823.69;5388313;26;20011;-73
2024/04/22 00:07:07;;;;;;;3.38;1.80;;;;;;;-1.80;100.00;102871.66;5418888;26;20002;-73
2024/04/22 00:09:33;;;;;;;3.00;1.80;;;;;;;-1.86;100.00;102868.44;5415515;26;20024;-73
2024/04/22 00:11:58;;;;;;;2.50;1.95;;;;;;;-1.83;100.00;102857.75;5418590;26;20361;-72
2024/04/22 00:14:24;;;;;;;3.20;1.98;;;;;;;-1.82;100.00;102862.06;5387721;26;19996;-72
2024/04/22 00:16:52;;;;;;;2.17;1.70;;;;;;;-1.82;100.00;102862.06;5418587;26;20425;-73
2024/04/22 00:19:17;;;;;;;3.60;1.73;;;;;;;-1.82;100.00;102851.53;5386280;26;20003;-72
2024/04/22 00:21:44;;;;;;;2.65;1.73;;;;;;;-1.71;100.00;102858.06;5357440;26;20338;-73
2024/04/22 00:24:09;;;;;;;2.17;1.60;;;;;;;-1.68;100.00;102864.97;5387342;26;19999;-73
2024/04/22 00:26:35;;;;;;;4.93;1.80;;;;;;;-1.68;100.00;102865.84;5325088;26;20003;-72
2024/04/22 00:29:01;;;;;;;4.90;1.73;;;;;;;-1.67;100.00;102862.25;5387025;26;20068;-72
2024/04/22 00:31:27;;;;;;;3.30;1.80;;;;;;;-1.70;100.00;102845.69;5386497;26;20068;-72
2024/04/22 00:33:53;;;;;;;3.20;1.70;;;;;;;-1.69;100.00;102836.84;5358695;26;20008;-72
2024/04/22 00:36:19;;;;;;;2.88;1.77;;;;;;;-1.58;100.00;102854.88;5387038;26;20470;-72
2024/04/22 00:38:47;;;;;;;3.28;1.90;;;;;;;-1.55;100.00;102857.38;5418149;26;19999;-72
2024/04/22 00:41:12;;;;;;;3.15;1.70;;;;;;;-1.54;100.00;102857.28;5384952;26;20023;-72
2024/04/22 00:43:38;;;;;;;2.25;1.70;;;;;;;-1.66;100.00;102837.59;5329649;26;20004;-71
2024/04/22 00:46:04;;;;;;;3.42;1.67;;;;;;;-1.52;100.00;102859.88;5419033;26;20046;-71
2024/04/22 00:48:30;;;;;;;2.78;1.73;;;;;;;-1.52;100.00;102854.59;5387292;26;20423;-71
2024/04/22 00:50:57;;;;;;;4.00;1.90;;;;;;;-1.51;100.00;102851.00;5387384;26;20014;-73
2024/04/22 00:53:25;;;;;;;1.80;1.52;;;;;;;-1.53;100.00;102856.34;5418312;26;20027;-72
2024/04/22 00:55:52;;;;;;;3.05;1.52;;;;;;;-1.50;100.00;102850.94;5387888;26;20003;-71
2024/04/22 00:58:19;;;;;;;3.05;1.98;;;;;;;-1.57;100.00;102833.66;5419711;26;20014;-72
2024/04/22 01:00:46;;;;;;;3.33;1.73;;;;;;;-1.49;100.00;102843.84;5394417;26;19999;-72
2024/04/22 01:03:13;;;;;;;2.97;1.80;;;;;;;-1.51;100.00;102841.31;5429613;26;20038;-72
2024/04/22 01:05:39;;;;;;;4.05;1.95;;;;;;;-1.66;100.00;102812.97;5423061;26;20011;-72
2024/04/22 01:08:05;;;;;;;5.07;2.00;;;;;;;-1.68;100.00;102801.63;5417752;26;19995;-73
2024/04/22 01:10:31;;;;;;;2.88;1.77;;;;;;;-1.61;100.00;102815.41;5417210;26;20087;-72
2024/04/22 01:12:57;;;;;;;4.00;1.70;;;;;;;-1.41;100.00;102841.75;5386691;26;20457;-72
2024/04/22 01:15:22;;;;;;;3.20;1.75;;;;;;;-1.65;100.00;102801.50;5386051;26;19995;-72
2024/04/22 01:17:48;;;;;;;3.22;1.88;;;;;;;-1.45;100.00;102834.88;5385688;26;20052;-72
2024/04/22 01:20:14;;;;;;;2.60;1.70;;;;;;;-1.59;100.00;102814.41;5385152;26;20068;-72
2024/04/22 01:22:40;;;;;;;3.95;1.80;;;;;;;-1.57;100.00;102811.69;5385345;26;20065;-72
2024/04/22 01:25:07;;;;;;;3.10;1.85;;;;;;;-1.50;100.00;102824.53;5384021;26;19987;-72
2024/04/22 01:27:35;;;;;;;3.60;1.90;;;;;;;-1.39;100.00;102834.63;5416621;26;20004;-72
2024/04/22 01:30:02;;;;;;;5.13;1.58;;;;;;;-1.40;100.00;102827.59;5385577;26;20033;-71
2024/04/22 01:32:27;;;;;;;2.88;1.90;;;;;;;-1.38;100.00;102835.47;5444374;26;20010;-72
2024/04/22 01:34:58;;;;;;;2.72;1.80;;;;;;;-1.39;100.00;102828.44;5445560;26;20442;-71
2024/04/22 01:37:24;;;;;;;3.63;1.80;;;;;;;-1.44;100.00;102821.59;5416212;26;20231;-72
2024/04/22 01:39:50;;;;;;;2.80;2.03;;;;;;;-1.67;100.00;102796.28;5416619;26;19996;-72
2024/04/22 01:42:16;;;;;;;2.97;1.70;;;;;;;-1.62;100.00;102796.06;5356077;26;20001;-71
2024/04/22 01:44:41;;;;;;;3.25;1.75;;;;;;;-1.47;100.00;102827.03;5386055;26;20007;-72
2024/04/22 01:47:07;;;;;;;3.78;1.65;;;;;;;-1.47;100.00;102815.63;5416892;26;20461;-72
2024/04/22 01:49:32;;;;;;;3.08;1.67;;;;;;;-1.49;100.00;102823.63;5386607;26;20438;-71
2024/04/22 01:51:58;;;;;;;3.42;1.80;;;;;;;-1.67;100.00;102790.13;5418345;26;20011;-73
2024/04/22 01:54:23;;;;;;;2.78;1.70;;;;;;;-1.51;100.00;102814.06;5421951;26;19999;-72
2024/04/22 01:56:49;;;;;;;6.57;1.90;;;;;;;-1.75;100.00;102772.03;5396879;26;20026;-71
2024/04/22 01:59:15;;;;;;;2.58;1.80;;;;;;;-1.51;100.00;102817.53;5426093;26;20019;-72
2024/04/22 02:01:41;;;;;;;2.33;1.67;;;;;;;-1.52;100.00;102815.84;5386417;26;20080;-72
2024/04/22 02:04:07;;;;;;;3.40;1.70;;;;;;;-1.50;100.00;102813.97;5355621;26;20003;-71
2024/04/22 02:06:32;;;;;;;2.13;1.58;;;;;;;-1.49;100.00;102818.34;5385643;26;20003;-71
2024/04/22 02:08:58;;;;;;;3.38;1.48;;;;;;;-1.63;100.00;102785.56;5385921;26;19991;-72
2024/04/22 02:11:23;;;;;;;1.92;1.52;;;;;;;-1.47;100.00;102813.81;5384430;26;20018;-71
2024/04/22 02:13:48;;;;;;;4.25;1.90;;;;;;;-1.52;100.00;102813.19;5415869;26;20032;-71
2024/04/22 02:16:14;;;;;;;3.13;2.25;;;;;;;-1.51;100.00;102806.97;5384817;26;19992;-71
2024/04/22 02:18:39;;;;;;;4.45;1.63;;;;;;;-1.53;100.00;102806.19;5417126;26;20007;-71
2024/04/22 02:21:05;;;;;;;6.22;1.92;;;;;;;-1.55;100.00;102812.50;5385385;26;20239;-71
2024/04/22 02:23:30;;;;;;;4.22;1.70;;;;;;;-1.55;100.00;102805.41;5417789;26;20057;-71
2024/04/22 02:25:55;;;;;;;2.30;1.65;;;;;;;-1.60;100.00;102810.03;5379090;26;20011;-74
2024/04/22 02:28:22;;;;;;;3.03;1.90;;;;;;;-1.62;100.00;102804.00;5394789;26;20020;-71
2024/04/22 02:30:48;;;;;;;3.03;1.85;;;;;;;-1.64;100.00;102797.91;5385503;26;20000;-71
2024/04/22 02:33:13;;;;;;;3.42;1.70;;;;;;;-1.66;100.00;102805.94;5385308;26;20065;-71
2024/04/22 02:35:40;;;;;;;2.72;1.70;;;;;;;-1.71;100.00;102799.13;5386694;26;20387;-71
2024/04/22 02:38:05;;;;;;;3.58;1.60;;;;;;;-1.78;100.00;102797.72;5416944;26;19996;-71
2024/04/22 02:40:31;;;;;;;3.50;1.75;;;;;;;-1.80;100.00;102796.91;5446535;26;20076;-70
2024/04/22 02:42:56;;;;;;;3.10;1.67;;;;;;;-1.84;100.00;102795.34;5386457;26;20545;-71
2024/04/22 02:45:21;;;;;;;3.83;1.75;;;;;;;-1.86;100.00;102797.19;5385465;26;20002;-71
2024/04/22 02:47:47;;;;;;;3.00;1.90;;;;;;;-1.93;100.00;102786.06;5386041;26;19992;-71
2024/04/22 02:50:13;;;;;;;3.25;1.80;;;;;;;-1.91;100.00;102792.97;5364651;26;19999;-71
2024/04/22 02:52:39;;;;;;;2.38;1.77;;;;;;;-1.92;100.00;102791.28;5394982;26;19999;-71
2024/04/22 02:55:06;;;;;;;3.33;1.77;;;;;;;-1.93;100.00;102791.31;5384772;26;20006;-71
2024/04/22 02:57:31;;;;;;;2.97;1.90;;;;;;;-1.95;100.00;102796.69;5381038;26;19989;-71
2024/04/22 02:59:57;;;;;;;2.80;1.75;;;;;;;-1.96;100.00;102791.47;5349925;26;20381;-71
2024/04/22 03:02:22;;;;;;;3.28;1.83;;;;;;;-2.01;100.00;102783.78;5363398;26;20011;-71
2024/04/22 03:04:49;;;;;;;2.83;1.55;;;;;;;-2.11;100.00;102765.78;5385426;26;20064;-71
2024/04/22 03:07:14;;;;;;;4.88;1.70;;;;;;;-2.02;100.00;102789.09;5357854;26;20006;-71
2024/04/22 03:09:42;;;;;;;4.90;1.80;;;;;;;-2.05;100.00;102787.47;5418661;26;20000;-72
2024/04/22 03:12:09;;;;;;;5.13;2.05;;;;;;;-2.07;100.00;102791.09;5387811;26;20050;-71
2024/04/22 03:14:36;;;;;;;2.75;1.80;;;;;;;-2.11;100.00;102787.75;5386967;26;20447;-71
2024/04/22 03:17:02;;;;;;;2.70;1.90;;;;;;;-2.11;100.00;102797.44;5388944;26;20015;-71
2024/04/22 03:19:27;;;;;;;2.97;1.73;;;;;;;-2.14;100.00;102778.19;5388803;26;20014;-71
2024/04/22 03:21:53;;;;;;;4.75;1.83;;;;;;;-2.17;100.00;102782.72;5420957;26;20391;-72
2024/04/22 03:24:19;;;;;;;3.33;1.92;;;;;;;-2.20;100.00;102785.50;5388975;26;19996;-71
2024/04/22 03:26:44;;;;;;;3.50;2.10;;;;;;;-2.21;100.00;102781.16;5419614;26;19995;-70
2024/04/22 03:29:10;;;;;;;4.75;1.90;;;;;;;-2.22;100.00;102777.69;5353835;26;20323;-71
2024/04/22 03:31:35;;;;;;;2.75;1.83;;;;;;;-2.24;100.00;102778.66;5384575;26;20000;-72
2024/04/22 03:34:01;;;;;;;4.30;2.22;;;;;;;-2.33;100.00;102766.72;5417226;26;20875;-71
2024/04/22 03:36:26;;;;;;;3.22;2.22;;;;;;;-2.30;100.00;102784.19;5389592;26;20401;-72
2024/04/22 03:38:53;;;;;;;3.08;2.13;;;;;;;-2.33;100.00;102786.97;5359113;26;20002;-72
2024/04/22 03:41:19;;;;;;;3.53;2.10;;;;;;;-2.36;100.00;102777.41;5386927;26;20462;-72
2024/04/22 03:43:44;;;;;;;2.78;2.00;;;;;;;-2.36;100.00;102777.41;5387579;26;20068;-71
2024/04/22 03:51:38;;;;;;;2.65;1.90;;;;;;;-2.32;100.00;102770.22;5349845;26;20006;-71
2024/04/22 03:54:03;;;;;;;2.13;1.70;;;;;;;-2.37;100.00;102763.38;5384842;26;19996;-71
2024/04/22 03:56:28;;;;;;;4.60;2.20;;;;;;;-2.32;100.00;102764.94;5412490;26;19996;-71
2024/04/22 03:58:54;;;;;;;5.35;2.20;;;;;;;-2.42;100.00;102746.03;5382402;26;20338;-70
2024/04/22 04:01:20;;;;;;;3.63;2.35;;;;;;;-2.28;100.00;102769.19;5412236;26;20015;-71
2024/04/22 04:03:45;;;;;;;4.72;2.45;;;;;;;-2.25;100.00;102764.63;5383190;26;20257;-70
2024/04/22 04:06:11;;;;;;;2.22;1.90;;;;;;;-2.17;100.00;102751.09;5382759;26;20003;-70
2024/04/22 04:08:37;;;;;;;2.58;2.10;;;;;;;-2.15;100.00;102668.34;5353145;26;19992;-73
2024/04/22 04:11:11;;;;;;;3.15;2.10;;;;;;;-1.20;100.00;102766.75;5386250;26;20015;-71
2024/04/22 04:13:36;;;;;;;3.55;2.22;;;;;;;-0.64;100.00;102759.56;5419993;26;19995;-76
2024/04/22 04:16:02;;;;;;;4.40;2.10;;;;;;;-0.09;100.00;102746.13;5429104;26;20049;-72
2024/04/22 04:18:27;;;;;;;3.05;2.00;;;;;;;0.27;100.00;102763.59;5400040;26;20073;-71
2024/04/22 04:20:53;;;;;;;2.58;2.05;;;;;;;0.34;100.00;102754.38;5394813;26;20404;-73
2024/04/22 04:23:19;;;;;;;2.47;1.75;;;;;;;0.46;100.00;102751.06;5449262;26;20411;-71
2024/04/22 04:25:44;;;;;;;2.72;1.90;;;;;;;0.72;100.00;102751.38;5415751;26;20027;-70
2024/04/22 04:28:10;;;;;;;3.25;2.08;;;;;;;0.87;100.00;102731.94;5386449;26;19996;-72
2024/04/22 04:30:35;;;;;;;2.85;1.83;;;;;;;0.97;100.00;102742.03;5386762;26;20327;-71
2024/04/22 04:33:01;;;;;;;2.75;2.03;;;;;;;0.92;100.00;102735.16;5388405;26;20041;-70
2024/04/22 04:35:26;;;;;;;5.50;1.73;;;;;;;0.90;100.00;102736.22;5387776;26;20022;-71
2024/04/22 04:37:52;;;;;;;3.05;1.85;;;;;;;1.22;100.00;102728.16;5386704;26;20363;-71
2024/04/22 04:40:18;;;;;;;3.85;2.00;;;;;;;1.19;100.00;102647.00;5386812;26;20061;-70
2024/04/22 04:42:43;;;;;;;3.50;2.00;;;;;;;1.96;100.00;102732.53;5387057;26;20004;-70
2024/04/22 04:45:09;;;;;;;4.25;2.10;;;;;;;2.37;100.00;102731.72;5388003;26;20006;-71
2024/04/22 04:47:34;;;;;;;3.13;1.80;;;;;;;2.69;100.00;102733.13;5418113;26;20399;-70
2024/04/22 04:50:00;;;;;;;2.40;1.70;;;;;;;2.35;100.00;102722.03;5418135;26;20338;-71
2024/04/22 04:52:25;;;;;;;3.25;1.70;;;;;;;2.69;100.00;102708.38;5421106;26;20014;-71
2024/04/22 04:54:51;;;;;;;2.33;1.52;;;;;;;2.55;100.00;102701.28;5389509;26;20009;-71
2024/04/22 04:57:16;;;;;;;2.85;1.55;;;;;;;2.72;100.00;102695.72;5388429;26;20370;-71
2024/04/22 04:59:42;;;;;;;2.60;1.80;;;;;;;2.70;100.00;102713.56;5421317;26;20003;-71
2024/04/22 05:02:07;;;;;;;3.55;1.77;;;;;;;2.72;100.00;102717.00;5386402;26;20069;-70
2024/04/22 05:04:33;;;;;;;4.95;1.55;;;;;;;2.96;100.00;102706.53;5387603;26;20457;-71
2024/04/22 05:06:59;;;;;;;5.25;1.88;;;;;;;2.76;100.00;102714.97;5360870;26;20471;-73
2024/04/22 05:09:24;;;;;;;3.72;1.90;;;;;;;2.98;100.00;102717.03;5394529;26;20002;-73
2024/04/22 05:11:50;;;;;;;3.95;1.88;;;;;;;2.93;100.00;102708.53;5388671;26;20559;-71
2024/04/22 05:14:15;;;;;;;3.95;2.00;;;;;;;2.67;100.00;102713.75;5420511;26;19992;-72
2024/04/22 05:16:42;;;;;;;4.35;1.70;;;;;;;2.00;100.00;102720.75;5386071;26;19995;-71
2024/04/22 05:19:08;;;;;;;2.35;1.50;;;;;;;1.00;100.00;102716.19;5386977;26;19999;-72
2024/04/22 05:21:33;;;;;;;2.40;1.65;;;;;;;0.29;100.00;102708.75;5330078;26;20399;-71
2024/04/22 05:24:09;;;;;;;4.30;1.90;;;;;;;-0.15;100.00;102709.41;5386854;26;20000;-72
2024/04/22 05:26:36;;;;;;;3.15;2.00;;;;;;;-0.22;100.00;102705.38;5421667;26;20460;-71
2024/04/22 05:29:01;;;;;;;5.90;1.77;;;;;;;-0.37;100.00;102716.78;5419139;26;20498;-71
2024/04/22 05:31:27;;;;;;;6.47;1.83;;;;;;;-0.34;100.00;102704.22;5385944;26;20002;-70
2024/04/22 05:36:36;;;;;;;2.63;1.88;;;;;;;-0.66;100.00;102670.69;5419940;26;20072;-71
2024/04/22 05:39:02;;;;;;;3.35;1.75;;;;;;;-0.37;100.00;102709.69;5359184;26;20011;-71
2024/04/22 05:41:28;;;;;;;5.55;1.83;;;;;;;-0.21;100.00;102704.44;5419090;26;19995;-71
2024/04/22 05:43:54;;;;;;;6.25;1.73;;;;;;;-0.40;100.00;102666.69;5418918;26;20045;-71
2024/04/22 05:46:20;;;;;;;3.83;1.90;;;;;;;-0.15;100.00;102692.69;5387487;26;20056;-71
2024/04/22 05:48:45;;;;;;;3.88;1.83;;;;;;;0.04;100.00;102696.03;5417487;26;20084;-71
2024/04/22 05:51:11;;;;;;;4.55;1.60;;;;;;;0.09;100.00;102699.28;5416277;26;20405;-71
2024/04/22 05:53:36;;;;;;;2.92;1.50;;;;;;;-0.30;100.00;102662.59;5372581;26;20470;-71
2024/04/22 05:56:02;;;;;;;3.33;1.42;;;;;;;-0.02;100.00;102696.38;5410709;26;19996;-71
2024/04/22 05:58:27;;;;;;;3.50;1.58;;;;;;;0.06;100.00;102698.59;5448599;26;19990;-73
2024/04/22 06:00:53;;;;;;;4.72;1.50;;;;;;;0.03;100.00;102693.47;5454052;26;20003;-71
2024/04/22 06:03:19;;;;;;;2.67;1.27;;;;;;;0.09;100.00;102693.97;5421508;26;19995;-71
2024/04/22 06:05:44;;;;;;;2.95;1.20;;;;;;;0.06;100.00;102691.50;5456853;26;20005;-70
2024/04/22 06:08:10;;;;;;;2.85;1.45;;;;;;;0.08;100.00;102688.78;5424741;26;20021;-71
2024/04/22 06:10:35;;;;;;;2.80;1.20;;;;;;;0.14;100.00;102689.28;5395054;26;19991;-70
2024/04/22 06:13:01;;;;;;;2.70;1.65;;;;;;;0.09;100.00;102696.63;5393159;26;20324;-71
2024/04/22 06:15:26;;;;;;;4.40;1.48;;;;;;;-0.03;100.00;102692.88;5352925;26;19996;-71
2024/04/22 06:17:52;;;;;;;3.30;1.30;;;;;;;0.24;100.00;102673.75;5417381;26;19999;-72
2024/04/22 06:20:17;;;;;;;4.75;1.50;;;;;;;0.18;100.00;102690.81;5417405;26;20015;-71
2024/04/22 06:22:43;;;;;;;6.57;1.60;;;;;;;0.17;100.00;102697.06;5331589;26;20015;-70
2024/04/22 06:25:08;;;;;;;4.85;1.40;;;;;;;0.32;100.00;102682.09;5361988;26;19995;-71
2024/04/22 06:27:34;;;;;;;2.05;1.20;;;;;;;0.29;100.00;102689.38;5423105;26;19992;-71
2024/04/22 06:30:00;;;;;;;3.00;1.58;;;;;;;0.35;100.00;102679.28;5390725;26;20004;-71
2024/04/22 06:32:25;;;;;;;3.25;1.20;;;;;;;0.69;100.00;102693.25;5361067;26;20010;-71
2024/04/22 06:34:51;;;;;;;2.08;1.25;;;;;;;0.57;100.00;102686.88;5419199;26;19991;-70
2024/04/22 06:37:16;;;;;;;3.45;1.48;;;;;;;0.52;100.00;102694.22;5417200;26;19991;-71
2024/04/22 06:39:42;;;;;;;3.58;1.27;;;;;;;0.37;100.00;102688.00;5419536;26;20056;-69
2024/04/22 06:42:07;;;;;;;3.42;1.55;;;;;;;0.45;100.00;102664.59;5361186;26;20006;-71
2024/04/22 06:44:33;;;;;;;3.22;1.50;;;;;;;0.71;100.00;102694.03;5391480;26;20002;-71
2024/04/22 06:46:58;;;;;;;3.28;1.48;;;;;;;0.89;100.00;102687.69;5391302;26;19999;-71
2024/04/22 06:49:23;;;;;;;3.00;1.02;;;;;;;0.82;100.00;102690.75;5422914;26;20060;-71
2024/04/22 06:51:49;;;;;;;2.70;1.20;;;;;;;0.83;100.00;102680.06;5361419;26;20450;-71
2024/04/22 06:54:14;;;;;;;3.17;1.20;;;;;;;0.61;100.00;102645.16;5388479;26;20043;-70
2024/04/22 06:56:40;;;;;;;2.58;1.00;;;;;;;0.88;100.00;102691.25;5421453;26;19995;-70
2024/04/22 06:59:05;;;;;;;2.10;1.02;;;;;;;1.00;100.00;102683.53;5422236;26;20007;-70
2024/04/22 07:01:30;;;;;;;3.95;1.30;;;;;;;1.23;100.00;102676.88;5419336;26;20007;-71
2024/04/22 07:03:57;;;;;;;3.60;1.00;;;;;;;1.18;100.00;102679.78;5393068;26;20011;-71
2024/04/22 07:06:23;;;;;;;3.45;1.10;;;;;;;0.92;100.00;102657.47;5391908;26;20008;-70
2024/04/22 07:08:48;;;;;;;1.75;0.90;;;;;;;1.00;100.00;102662.31;5423596;26;20060;-71
2024/04/22 07:11:14;;;;;;;3.70;0.95;;;;;;;1.17;100.00;102663.00;5366116;26;20009;-71
2024/04/22 07:13:39;;;;;;;2.05;1.00;;;;;;;1.21;100.00;102662.84;5364301;26;20499;-70
2024/04/22 07:16:05;;;;;;;1.45;1.10;;;;;;;1.43;100.00;102657.09;5391991;26;20003;-70
2024/04/22 07:18:30;;;;;;;2.58;1.15;;;;;;;1.49;100.00;102659.34;5424829;26;20018;-71
2024/04/22 07:20:56;;;;;;;3.63;0.90;;;;;;;1.43;100.00;102659.75;5426025;26;19984;-79
2024/04/22 07:23:22;;;;;;;3.17;1.20;;;;;;;1.56;100.00;102663.34;5371190;26;19999;-71
2024/04/22 07:25:47;;;;;;;2.67;1.27;;;;;;;1.63;100.00;102672.63;5435489;26;20007;-72
2024/04/22 07:28:13;;;;;;;4.90;1.10;;;;;;;1.54;100.00;102668.72;5399403;26;20014;-71
2024/04/22 07:30:39;;;;;;;4.50;0.90;;;;;;;1.81;100.00;102658.19;5392939;26;19995;-71
2024/04/22 07:33:05;;;;;;;2.17;1.13;;;;;;;1.95;100.00;102630.75;5390862;26;20000;-70
2024/04/22 07:35:31;;;;;;;3.92;0.93;;;;;;;1.55;100.00;102632.44;5360847;26;19995;-71
2024/04/22 07:38:05;;;;;;;3.67;0.95;;;;;;;1.70;100.00;102670.44;5390110;26;20024;-71
2024/04/22 07:40:31;;;;;;;1.50;0.93;;;;;;;1.83;100.00;102658.97;5422832;26;19992;-71
2024/04/22 07:42:56;;;;;;;2.33;0.70;;;;;;;1.94;100.00;102660.94;5390064;26;19996;-71
2024/04/22 07:45:23;;;;;;;4.63;0.90;;;;;;;2.23;100.00;102652.91;5392326;26;20008;-71
2024/04/22 07:47:49;;;;;;;6.15;1.25;;;;;;;2.09;100.00;102653.81;5363516;26;20041;-71
2024/04/22 07:50:15;;;;;;;2.30;0.77;;;;;;;2.34;100.00;102664.53;5363355;26;19995;-70
2024/04/22 07:52:41;;;;;;;2.28;0.90;;;;;;;2.30;100.00;102665.69;5359593;26;20027;-70
2024/04/22 07:55:07;;;;;;;1.70;0.70;;;;;;;2.29;100.00;102677.28;5376290;26;20001;-71
2024/04/22 07:57:32;;;;;;;3.17;0.90;;;;;;;2.17;100.00;102666.56;5376715;26;20336;-76
2024/04/22 07:59:58;;;;;;;3.28;0.60;;;;;;;1.96;100.00;102621.03;5372993;26;20068;-70
2024/04/22 08:02:24;;;;;;;3.13;0.90;;;;;;;2.00;100.00;102652.56;5374670;26;20007;-71
2024/04/22 08:04:50;;;;;;;3.20;1.10;;;;;;;2.37;100.00;102660.81;5372773;26;20011;-71
2024/04/22 08:07:19;;;;;;;4.28;1.10;;;;;;;2.60;100.00;102661.97;5371602;26;20001;-70
2024/04/22 08:09:45;;;;;;;2.38;0.90;;;;;;;2.45;100.00;102668.28;5343784;26;19997;-71
2024/04/22 08:12:13;;;;;;;3.08;0.98;;;;;;;2.61;100.00;102666.31;5374027;26;20008;-71
2024/04/22 08:14:40;;;;;;;2.72;1.00;;;;;;;2.37;100.00;102670.59;5347023;26;20000;-71
2024/04/22 08:17:06;;;;;;;5.30;1.08;;;;;;;2.41;100.00;102645.53;5390257;26;20025;-72
2024/04/22 08:19:31;;;;;;;2.25;1.10;;;;;;;2.41;100.00;102662.31;5399220;26;20460;-70
2024/04/22 08:21:56;;;;;;;1.85;0.70;;;;;;;2.58;100.00;102651.47;5383116;26;19997;-72
2024/04/22 08:24:24;;;;;;;1.67;0.80;;;;;;;2.69;100.00;102671.16;5387176;26;20049;-71
2024/04/22 08:26:54;;;;;;;3.00;0.90;;;;;;;2.82;100.00;102658.75;5418781;26;20343;-72
2024/04/22 08:29:19;;;;;;;2.03;0.70;;;;;;;2.81;100.00;102655.25;5413759;26;19992;-71
2024/04/22 08:31:44;;;;;;;3.42;0.95;;;;;;;2.71;100.00;102667.41;5418558;26;20007;-71
2024/04/22 08:34:10;;;;;;;1.40;0.70;;;;;;;3.02;100.00;102665.38;5420117;26;20054;-71
2024/04/22 08:36:36;;;;;;;1.73;0.80;;;;;;;3.13;100.00;102661.97;5383869;26;20007;-70
2024/04/22 08:39:01;;;;;;;2.42;1.00;;;;;;;3.01;100.00;102650.34;5414508;26;19997;-71
2024/04/22 08:41:27;;;;;;;3.33;1.00;;;;;;;2.96;100.00;102617.91;5376189;26;19996;-71
2024/04/22 08:43:52;;;;;;;4.43;1.27;;;;;;;3.04;100.00;102639.50;5411616;26;20011;-71
2024/04/22 08:46:18;;;;;;;1.65;0.80;;;;;;;3.01;100.00;102645.91;5375301;26;20014;-71
2024/04/22 08:48:43;;;;;;;2.90;0.90;;;;;;;2.98;100.00;102634.59;5412253;26;20005;-71
2024/04/22 08:51:09;;;;;;;4.40;0.82;;;;;;;3.00;100.00;102627.38;5376456;26;19988;-71
2024/04/22 08:53:34;;;;;;;2.30;0.90;;;;;;;3.03;100.00;102616.53;5397159;26;20002;-71
2024/04/22 08:56:00;;;;;;;3.20;0.95;;;;;;;3.30;100.00;102638.56;5396437;26;19994;-70
2024/04/22 08:58:25;;;;;;;3.45;1.00;;;;;;;3.24;100.00;102636.31;5425320;26;19999;-70
2024/04/22 09:00:51;;;;;;;3.28;0.90;;;;;;;3.08;100.00;102616.22;5454237;26;20007;-70
2024/04/22 09:03:16;;;;;;;2.35;0.80;;;;;;;3.28;100.00;102635.19;5422651;26;19990;-70
2024/04/22 09:05:42;;;;;;;4.10;0.80;;;;;;;3.40;100.00;102619.31;5455055;26;19999;-72
2024/04/22 09:08:09;;;;;;;1.70;0.82;;;;;;;3.43;100.00;102608.44;5423305;26;20337;-71
2024/04/22 09:10:38;;;;;;;2.72;1.00;;;;;;;3.45;100.00;102614.53;5454716;26;20246;-71
2024/04/22 09:13:04;;;;;;;3.80;0.90;;;;;;;3.48;100.00;102587.69;5454571;26;20003;-71
2024/04/22 09:15:30;;;;;;;3.22;0.90;;;;;;;3.64;100.00;102641.53;5453454;26;20030;-71
2024/04/22 09:17:56;;;;;;;3.85;1.00;;;;;;;3.57;100.00;102607.47;5455457;26;19999;-71
2024/04/22 09:20:23;;;;;;;2.70;0.82;;;;;;;3.80;100.00;102613.81;5423058;26;19990;-71
2024/04/22 09:22:49;;;;;;;1.50;0.88;;;;;;;3.66;100.00;102618.31;5454056;26;19991;-71
2024/04/22 09:25:15;;;;;;;1.58;0.77;;;;;;;3.46;100.00;102613.56;5395049;26;20000;-69
2024/04/22 09:27:45;;;;;;;0.88;0.57;;;;;;;3.81;100.00;102602.19;5339372;26;20055;-71
2024/04/22 09:30:16;;;;;;;2.95;0.90;;;;;;;3.81;100.00;102602.19;5383901;26;20064;-71
2024/04/22 09:32:47;;;;;;;3.42;1.10;;;;;;;3.92;100.00;102573.81;5397926;26;19996;-70
2024/04/22 09:35:18;;;;;;;1.73;0.77;;;;;;;4.09;100.00;102601.03;5425775;26;20003;-72
2024/04/22 09:37:44;;;;;;;3.25;0.93;;;;;;;3.59;100.00;102614.38;5417806;26;19991;-73
2024/04/22 09:40:11;;;;;;;4.65;1.30;;;;;;;3.32;100.00;102555.16;5386168;26;20028;-69
2024/04/22 09:42:39;;;;;;;1.90;1.00;;;;;;;3.69;100.00;102588.81;5418290;26;20000;-71
2024/04/22 09:45:05;;;;;;;2.90;1.13;;;;;;;3.46;100.00;102537.22;5415502;26;20003;-70
2024/04/22 09:47:33;;;;;;;4.20;1.05;;;;;;;3.69;100.00;102586.16;5418075;26;19996;-71
2024/04/22 09:50:00;;;;;;;2.83;0.93;;;;;;;3.86;99.23;102562.78;5385436;26;20039;-70
2024/04/22 09:52:26;;;;;;;3.28;0.98;;;;;;;4.02;98.93;102570.50;5366264;26;20032;-70
2024/04/22 09:54:52;;;;;;;1.88;1.00;;;;;;;3.72;98.96;102515.84;5425338;26;20048;-70
2024/04/22 09:57:18;;;;;;;1.33;0.60;;;;;;;4.00;97.84;102559.94;5426489;26;19998;-71
2024/04/22 09:59:44;;;;;;;2.38;0.95;;;;;;;4.03;95.99;102557.06;5459352;26;19995;-71
2024/04/22 10:02:10;;;;;;;3.63;1.38;;;;;;;3.81;90.61;102543.59;5426288;26;20056;-71
2024/04/22 10:04:36;;;;;;;4.20;0.90;;;;;;;3.92;89.86;102549.84;5461179;26;19991;-70
2024/04/22 10:07:02;;;;;;;1.75;0.98;;;;;;;4.32;90.25;102559.38;5399934;26;20048;-71
2024/04/22 10:09:28;;;;;;;3.38;1.13;;;;;;;4.28;84.69;102560.56;5462682;26;20027;-70
2024/04/22 10:11:54;;;;;;;1.77;1.13;;;;;;;4.30;85.55;102563.94;5459331;26;20880;-71
2024/04/22 10:14:20;;;;;;;1.98;0.90;;;;;;;4.21;81.60;102547.69;5458841;26;20005;-71
2024/04/22 10:16:56;;;;;;;3.03;0.90;;;;;;;4.18;81.27;102541.75;5461575;26;20003;-71
2024/04/22 10:19:22;;;;;;;2.22;0.80;;;;;;;4.27;80.22;102546.38;5462012;26;20006;-71
2024/04/22 10:21:50;;;;;;;1.95;0.95;;;;;;;4.18;78.18;102533.75;5467053;26;20006;-71
2024/04/22 10:24:36;;;;;;;2.13;0.93;;;;;;;4.25;75.53;102540.31;5433029;26;20069;-70
2024/04/22 10:27:11;;;;;;;2.20;0.90;;;;;;;4.41;80.28;102556.88;5462749;26;20029;-71
2024/04/22 10:29:37;;;;;;;;;;;;;;;4.39;78.82;102529.47;5429062;26;20485;-71
2024/04/22 10:32:03;;;;;;;2.63;0.80;;;;;;;4.43;78.26;102524.75;5460426;26;19928;-71
2024/04/22 10:34:28;;;;;;;1.73;0.80;;;;;;;4.45;74.45;102515.69;5436813;26;20033;-71
2024/04/22 10:36:54;;;;;;;1.40;0.55;;;;;;;4.57;75.83;102516.56;5411649;26;19995;-71
2024/04/22 10:39:20;;;;;;;1.88;0.75;;;;;;;4.63;74.70;102516.06;5470235;26;19994;-70
2024/04/22 10:41:45;;;;;;;1.85;0.75;;;;;;;4.42;73.64;102507.06;5403227;26;19991;-71
2024/04/22 10:44:11;;;;;;;1.25;0.70;;;;;;;4.22;74.53;102465.94;5432117;26;19995;-71
2024/04/22 10:46:38;;;;;;;3.85;0.80;;;;;;;4.65;78.76;102499.97;5415624;26;20450;-71
2024/04/22 10:49:04;;;;;;;3.13;0.90;;;;;;;4.67;79.63;102508.72;5462307;26;19986;-71
2024/04/22 10:51:30;;;;;;;1.58;0.80;;;;;;;4.83;80.85;102503.00;5431697;26;20006;-71
2024/04/22 10:53:55;;;;;;;3.25;1.00;;;;;;;4.77;76.73;102483.03;5462339;26;20048;-72
2024/04/22 10:56:24;;;;;;;2.28;0.90;;;;;;;4.91;78.67;102487.28;5396778;26;19995;-72
2024/04/22 10:58:52;;;;;;;1.70;0.80;;;;;;;5.00;78.11;102478.56;5457889;26;20023;-71
2024/04/22 11:01:20;;;;;;;3.05;0.80;;;;;;;5.01;76.29;102474.91;5426159;26;20449;-71
2024/04/22 11:03:46;;;;;;;2.00;0.85;;;;;;;4.94;75.63;102465.69;5460931;26;19991;-71
2024/04/22 11:06:13;;;;;;;2.10;1.08;;;;;;;5.06;74.84;102478.03;5429530;26;19999;-71
2024/04/22 11:08:43;;;;;;;2.10;1.00;;;;;;;4.95;74.93;102468.22;5430490;26;19995;-71
2024/04/22 11:11:10;;;;;;;2.80;1.00;;;;;;;4.92;75.68;102411.59;5429979;26;20051;-72
2024/04/22 11:13:37;;;;;;;1.65;0.80;;;;;;;4.97;76.24;102457.44;5461408;26;20005;-72
2024/04/22 11:16:09;;;;;;;1.20;0.73;;;;;;;4.76;76.09;102435.13;5461394;26;20052;-71
2024/04/22 11:18:35;;;;;;;3.33;0.80;;;;;;;5.09;79.06;102431.59;5461766;26;20010;-71
2024/04/22 11:21:01;;;;;;;3.42;0.93;;;;;;;5.15;79.30;102439.09;5457805;26;20092;-72
2024/04/22 11:23:26;;;;;;;1.92;0.93;;;;;;;5.04;76.66;102423.97;5399253;26;20003;-72
2024/04/22 11:25:52;;;;;;;2.45;0.90;;;;;;;5.15;74.99;102426.59;5429650;26;19995;-71
2024/04/22 11:28:18;;;;;;;1.98;0.90;;;;;;;4.88;73.11;102379.00;5463363;26;20007;-71